sensor_id;sensor_type;location;lat;lon;timestamp;P1;durP1;ratioP1;P2;durP2;ratioP2
19341;SDS011;9807;48.258;12.690;2023-04-30T00:01:47;8.83;;;6.07;;
19341;SDS011;9807;48.258;12.690;2023-04-30T00:04:12;7.17;;;4.90;;
19341;SDS011;9807;48.258;12.690;2023-04-30T00:06:38;5.93;;;3.87;;
19341;SDS011;9807;48.258;12.690;2023-04-30T00:09:14;5.83;;;4.40;;
19341;SDS011;9807;48.258;12.690;2023-04-30T00:11:41;4.93;;;4.03;;
19341;SDS011;9807;48.258;12.690;2023-04-30T00:14:07;6.50;;;4.80;;
19341;SDS011;9807;48.258;12.690;2023-04-30T00:16:34;7.07;;;5.70;;
19341;SDS011;9807;48.258;12.690;2023-04-30T00:18:59;8.53;;;5.50;;
19341;SDS011;9807;48.258;12.690;2023-04-30T00:21:25;8.40;;;5.70;;
19341;SDS011;9807;48.258;12.690;2023-04-30T00:23:54;4.67;;;4.20;;
19341;SDS011;9807;48.258;12.690;2023-04-30T00:26:21;4.70;;;4.20;;
19341;SDS011;9807;48.258;12.690;2023-04-30T00:28:49;5.57;;;4.80;;
19341;SDS011;9807;48.258;12.690;2023-04-30T00:31:15;9.00;;;5.90;;
19341;SDS011;9807;48.258;12.690;2023-04-30T00:33:40;8.20;;;6.00;;
19341;SDS011;9807;48.258;12.690;2023-04-30T00:36:06;7.47;;;5.93;;
19341;SDS011;9807;48.258;12.690;2023-04-30T00:38:32;7.60;;;6.10;;
19341;SDS011;9807;48.258;12.690;2023-04-30T00:40:57;6.30;;;5.50;;
19341;SDS011;9807;48.258;12.690;2023-04-30T00:43:26;8.10;;;6.43;;
19341;SDS011;9807;48.258;12.690;2023-04-30T00:45:52;9.27;;;6.27;;
19341;SDS011;9807;48.258;12.690;2023-04-30T00:48:18;7.00;;;5.37;;
19341;SDS011;9807;48.258;12.690;2023-04-30T00:50:44;7.20;;;5.83;;
19341;SDS011;9807;48.258;12.690;2023-04-30T00:53:10;8.13;;;5.80;;
19341;SDS011;9807;48.258;12.690;2023-04-30T00:55:36;8.13;;;5.80;;
19341;SDS011;9807;48.258;12.690;2023-04-30T00:58:07;8.17;;;6.20;;
19341;SDS011;9807;48.258;12.690;2023-04-30T01:00:33;6.50;;;5.30;;
19341;SDS011;9807;48.258;12.690;2023-04-30T01:02:59;9.50;;;6.23;;
19341;SDS011;9807;48.258;12.690;2023-04-30T01:05:25;7.70;;;6.07;;
19341;SDS011;9807;48.258;12.690;2023-04-30T01:07:51;7.17;;;6.10;;
19341;SDS011;9807;48.258;12.690;2023-04-30T01:10:18;8.17;;;6.00;;
19341;SDS011;9807;48.258;12.690;2023-04-30T01:18:21;9.83;;;7.20;;
19341;SDS011;9807;48.258;12.690;2023-04-30T01:20:53;10.83;;;7.00;;
19341;SDS011;9807;48.258;12.690;2023-04-30T01:26:09;9.10;;;6.83;;
19341;SDS011;9807;48.258;12.690;2023-04-30T01:28:38;7.63;;;6.50;;
19341;SDS011;9807;48.258;12.690;2023-04-30T01:31:13;9.07;;;6.90;;
19341;SDS011;9807;48.258;12.690;2023-04-30T01:33:41;6.47;;;5.43;;
19341;SDS011;9807;48.258;12.690;2023-04-30T01:36:10;7.40;;;5.90;;
19341;SDS011;9807;48.258;12.690;2023-04-30T01:41:53;11.23;;;7.20;;
19341;SDS011;9807;48.258;12.690;2023-04-30T01:44:48;8.60;;;6.40;;
19341;SDS011;9807;48.258;12.690;2023-04-30T01:47:33;9.70;;;6.50;;
19341;SDS011;9807;48.258;12.690;2023-04-30T01:50:21;9.00;;;6.70;;
19341;SDS011;9807;48.258;12.690;2023-04-30T01:52:57;8.60;;;5.97;;
19341;SDS011;9807;48.258;12.690;2023-04-30T01:55:27;8.33;;;6.17;;
19341;SDS011;9807;48.258;12.690;2023-04-30T01:58:01;7.53;;;5.90;;
19341;SDS011;9807;48.258;12.690;2023-04-30T02:00:30;6.17;;;5.20;;
19341;SDS011;9807;48.258;12.690;2023-04-30T02:02:57;7.47;;;5.57;;
19341;SDS011;9807;48.258;12.690;2023-04-30T02:05:24;7.03;;;5.40;;
19341;SDS011;9807;48.258;12.690;2023-04-30T02:07:51;7.97;;;5.20;;
19341;SDS011;9807;48.258;12.690;2023-04-30T02:10:19;4.20;;;3.80;;
19341;SDS011;9807;48.258;12.690;2023-04-30T02:12:46;4.33;;;3.20;;
19341;SDS011;9807;48.258;12.690;2023-04-30T02:15:12;3.80;;;3.20;;
19341;SDS011;9807;48.258;12.690;2023-04-30T02:17:38;3.30;;;3.00;;
19341;SDS011;9807;48.258;12.690;2023-04-30T02:20:04;4.00;;;3.60;;
19341;SDS011;9807;48.258;12.690;2023-04-30T02:22:30;4.03;;;3.50;;
19341;SDS011;9807;48.258;12.690;2023-04-30T02:24:55;3.90;;;3.50;;
19341;SDS011;9807;48.258;12.690;2023-04-30T02:27:22;3.70;;;3.27;;
19341;SDS011;9807;48.258;12.690;2023-04-30T02:29:52;7.17;;;4.80;;
19341;SDS011;9807;48.258;12.690;2023-04-30T02:32:18;6.77;;;4.27;;
19341;SDS011;9807;48.258;12.690;2023-04-30T02:34:44;5.97;;;4.50;;
19341;SDS011;9807;48.258;12.690;2023-04-30T02:37:10;6.33;;;5.00;;
19341;SDS011;9807;48.258;12.690;2023-04-30T02:39:35;10.03;;;5.60;;
19341;SDS011;9807;48.258;12.690;2023-04-30T02:42:03;6.67;;;5.50;;
19341;SDS011;9807;48.258;12.690;2023-04-30T02:44:30;6.97;;;5.10;;
19341;SDS011;9807;48.258;12.690;2023-04-30T02:46:57;7.17;;;5.40;;
19341;SDS011;9807;48.258;12.690;2023-04-30T02:49:22;8.63;;;5.30;;
19341;SDS011;9807;48.258;12.690;2023-04-30T02:51:48;7.10;;;5.57;;
19341;SDS011;9807;48.258;12.690;2023-04-30T02:54:13;11.23;;;4.80;;
19341;SDS011;9807;48.258;12.690;2023-04-30T02:56:39;6.60;;;5.20;;
19341;SDS011;9807;48.258;12.690;2023-04-30T02:59:05;8.13;;;5.43;;
19341;SDS011;9807;48.258;12.690;2023-04-30T03:01:31;5.90;;;5.00;;
19341;SDS011;9807;48.258;12.690;2023-04-30T03:03:56;4.50;;;3.57;;
19341;SDS011;9807;48.258;12.690;2023-04-30T03:06:23;4.37;;;3.90;;
19341;SDS011;9807;48.258;12.690;2023-04-30T03:08:49;7.53;;;5.30;;
19341;SDS011;9807;48.258;12.690;2023-04-30T03:11:15;8.27;;;6.37;;
19341;SDS011;9807;48.258;12.690;2023-04-30T03:13:41;7.23;;;6.03;;
19341;SDS011;9807;48.258;12.690;2023-04-30T03:16:07;12.20;;;6.60;;
19341;SDS011;9807;48.258;12.690;2023-04-30T03:18:33;8.90;;;5.10;;
19341;SDS011;9807;48.258;12.690;2023-04-30T03:20:59;7.13;;;5.03;;
19341;SDS011;9807;48.258;12.690;2023-04-30T03:23:26;5.43;;;4.73;;
19341;SDS011;9807;48.258;12.690;2023-04-30T03:25:52;6.53;;;5.27;;
19341;SDS011;9807;48.258;12.690;2023-04-30T03:28:17;4.07;;;3.67;;
19341;SDS011;9807;48.258;12.690;2023-04-30T03:30:43;5.87;;;5.00;;
19341;SDS011;9807;48.258;12.690;2023-04-30T03:33:09;4.47;;;3.60;;
19341;SDS011;9807;48.258;12.690;2023-04-30T03:35:35;4.40;;;3.67;;
19341;SDS011;9807;48.258;12.690;2023-04-30T03:38:00;3.60;;;3.30;;
19341;SDS011;9807;48.258;12.690;2023-04-30T03:40:26;4.23;;;3.67;;
19341;SDS011;9807;48.258;12.690;2023-04-30T03:42:52;3.33;;;2.90;;
19341;SDS011;9807;48.258;12.690;2023-04-30T03:45:19;4.03;;;3.50;;
19341;SDS011;9807;48.258;12.690;2023-04-30T03:47:44;3.00;;;2.70;;
19341;SDS011;9807;48.258;12.690;2023-04-30T03:50:10;3.93;;;3.50;;
19341;SDS011;9807;48.258;12.690;2023-04-30T03:52:36;4.03;;;2.90;;
19341;SDS011;9807;48.258;12.690;2023-04-30T03:55:02;8.37;;;5.40;;
19341;SDS011;9807;48.258;12.690;2023-04-30T03:57:29;5.00;;;4.50;;
19341;SDS011;9807;48.258;12.690;2023-04-30T03:59:54;4.83;;;4.13;;
19341;SDS011;9807;48.258;12.690;2023-04-30T04:02:20;4.37;;;3.33;;
19341;SDS011;9807;48.258;12.690;2023-04-30T04:04:46;3.53;;;2.80;;
19341;SDS011;9807;48.258;12.690;2023-04-30T04:07:13;3.50;;;3.20;;
19341;SDS011;9807;48.258;12.690;2023-04-30T04:09:39;3.17;;;2.80;;
19341;SDS011;9807;48.258;12.690;2023-04-30T04:12:06;3.80;;;2.80;;
19341;SDS011;9807;48.258;12.690;2023-04-30T04:14:31;6.03;;;3.80;;
19341;SDS011;9807;48.258;12.690;2023-04-30T04:16:57;3.97;;;2.97;;
19341;SDS011;9807;48.258;12.690;2023-04-30T04:19:27;3.63;;;3.33;;
19341;SDS011;9807;48.258;12.690;2023-04-30T04:21:56;4.50;;;3.87;;
19341;SDS011;9807;48.258;12.690;2023-04-30T04:24:24;4.90;;;4.27;;
19341;SDS011;9807;48.258;12.690;2023-04-30T04:26:50;5.17;;;4.00;;
19341;SDS011;9807;48.258;12.690;2023-04-30T04:29:17;4.40;;;4.00;;
19341;SDS011;9807;48.258;12.690;2023-04-30T04:31:43;5.93;;;5.27;;
19341;SDS011;9807;48.258;12.690;2023-04-30T04:34:09;5.73;;;5.10;;
19341;SDS011;9807;48.258;12.690;2023-04-30T04:36:34;7.33;;;5.97;;
19341;SDS011;9807;48.258;12.690;2023-04-30T04:39:00;6.23;;;5.57;;
19341;SDS011;9807;48.258;12.690;2023-04-30T04:41:30;5.80;;;5.20;;
19341;SDS011;9807;48.258;12.690;2023-04-30T04:43:57;4.60;;;3.60;;
19341;SDS011;9807;48.258;12.690;2023-04-30T04:46:23;4.10;;;3.10;;
19341;SDS011;9807;48.258;12.690;2023-04-30T04:48:49;4.20;;;3.33;;
19341;SDS011;9807;48.258;12.690;2023-04-30T04:51:18;3.87;;;3.43;;
19341;SDS011;9807;48.258;12.690;2023-04-30T04:53:44;4.63;;;3.93;;
19341;SDS011;9807;48.258;12.690;2023-04-30T04:56:10;3.47;;;3.17;;
19341;SDS011;9807;48.258;12.690;2023-04-30T04:58:37;4.57;;;3.37;;
19341;SDS011;9807;48.258;12.690;2023-04-30T05:01:03;4.90;;;3.47;;
19341;SDS011;9807;48.258;12.690;2023-04-30T05:03:29;6.90;;;3.30;;
19341;SDS011;9807;48.258;12.690;2023-04-30T05:05:56;3.57;;;3.23;;
19341;SDS011;9807;48.258;12.690;2023-04-30T05:08:22;3.90;;;3.50;;
19341;SDS011;9807;48.258;12.690;2023-04-30T05:10:48;4.07;;;3.67;;
19341;SDS011;9807;48.258;12.690;2023-04-30T05:13:13;3.50;;;3.00;;
19341;SDS011;9807;48.258;12.690;2023-04-30T05:15:39;4.10;;;3.53;;
19341;SDS011;9807;48.258;12.690;2023-04-30T05:18:04;3.53;;;3.20;;
19341;SDS011;9807;48.258;12.690;2023-04-30T05:20:30;3.77;;;3.47;;
19341;SDS011;9807;48.258;12.690;2023-04-30T05:22:56;4.30;;;3.80;;
19341;SDS011;9807;48.258;12.690;2023-04-30T05:25:21;4.60;;;4.20;;
19341;SDS011;9807;48.258;12.690;2023-04-30T05:27:47;5.43;;;4.20;;
19341;SDS011;9807;48.258;12.690;2023-04-30T05:30:13;4.37;;;3.70;;
19341;SDS011;9807;48.258;12.690;2023-04-30T05:32:42;4.40;;;4.00;;
19341;SDS011;9807;48.258;12.690;2023-04-30T05:35:14;5.60;;;4.00;;
19341;SDS011;9807;48.258;12.690;2023-04-30T05:37:40;4.57;;;4.00;;
19341;SDS011;9807;48.258;12.690;2023-04-30T05:40:07;4.57;;;4.10;;
19341;SDS011;9807;48.258;12.690;2023-04-30T05:42:34;4.30;;;3.73;;
19341;SDS011;9807;48.258;12.690;2023-04-30T05:45:00;4.40;;;3.97;;
19341;SDS011;9807;48.258;12.690;2023-04-30T05:47:26;5.77;;;4.70;;
19341;SDS011;9807;48.258;12.690;2023-04-30T05:49:52;4.67;;;3.80;;
19341;SDS011;9807;48.258;12.690;2023-04-30T05:52:21;4.63;;;4.10;;
19341;SDS011;9807;48.258;12.690;2023-04-30T05:54:48;5.07;;;3.70;;
19341;SDS011;9807;48.258;12.690;2023-04-30T05:57:13;12.83;;;4.53;;
19341;SDS011;9807;48.258;12.690;2023-04-30T05:59:39;3.97;;;3.60;;
19341;SDS011;9807;48.258;12.690;2023-04-30T06:02:05;3.70;;;3.40;;
19341;SDS011;9807;48.258;12.690;2023-04-30T06:04:31;6.33;;;4.20;;
19341;SDS011;9807;48.258;12.690;2023-04-30T06:06:56;3.90;;;3.50;;
19341;SDS011;9807;48.258;12.690;2023-04-30T06:09:22;3.70;;;3.40;;
19341;SDS011;9807;48.258;12.690;2023-04-30T06:11:48;4.43;;;4.03;;
19341;SDS011;9807;48.258;12.690;2023-04-30T06:14:15;5.10;;;4.10;;
19341;SDS011;9807;48.258;12.690;2023-04-30T06:16:41;4.30;;;3.90;;
19341;SDS011;9807;48.258;12.690;2023-04-30T06:19:08;4.97;;;4.07;;
19341;SDS011;9807;48.258;12.690;2023-04-30T06:21:34;5.03;;;4.37;;
19341;SDS011;9807;48.258;12.690;2023-04-30T06:23:59;5.40;;;4.17;;
19341;SDS011;9807;48.258;12.690;2023-04-30T06:26:25;4.43;;;4.03;;
19341;SDS011;9807;48.258;12.690;2023-04-30T06:28:51;5.03;;;4.47;;
19341;SDS011;9807;48.258;12.690;2023-04-30T06:31:17;5.13;;;4.50;;
19341;SDS011;9807;48.258;12.690;2023-04-30T06:33:43;8.70;;;5.87;;
19341;SDS011;9807;48.258;12.690;2023-04-30T06:36:08;4.90;;;4.13;;
19341;SDS011;9807;48.258;12.690;2023-04-30T06:38:34;4.80;;;4.27;;
19341;SDS011;9807;48.258;12.690;2023-04-30T06:41:00;5.17;;;4.60;;
19341;SDS011;9807;48.258;12.690;2023-04-30T06:43:25;5.20;;;4.43;;
19341;SDS011;9807;48.258;12.690;2023-04-30T06:45:51;4.83;;;4.33;;
19341;SDS011;9807;48.258;12.690;2023-04-30T06:48:17;5.77;;;4.83;;
19341;SDS011;9807;48.258;12.690;2023-04-30T06:50:42;4.67;;;4.17;;
19341;SDS011;9807;48.258;12.690;2023-04-30T06:53:11;5.70;;;4.27;;
19341;SDS011;9807;48.258;12.690;2023-04-30T06:55:36;5.93;;;4.37;;
19341;SDS011;9807;48.258;12.690;2023-04-30T06:58:02;5.17;;;4.67;;
19341;SDS011;9807;48.258;12.690;2023-04-30T07:00:30;4.83;;;4.23;;
19341;SDS011;9807;48.258;12.690;2023-04-30T07:02:55;5.50;;;4.60;;
19341;SDS011;9807;48.258;12.690;2023-04-30T07:05:24;5.23;;;4.73;;
19341;SDS011;9807;48.258;12.690;2023-04-30T07:07:50;4.73;;;4.23;;
19341;SDS011;9807;48.258;12.690;2023-04-30T07:10:16;6.13;;;4.60;;
19341;SDS011;9807;48.258;12.690;2023-04-30T07:12:42;5.10;;;4.60;;
19341;SDS011;9807;48.258;12.690;2023-04-30T07:15:08;6.33;;;5.23;;
19341;SDS011;9807;48.258;12.690;2023-04-30T07:17:34;4.80;;;4.30;;
19341;SDS011;9807;48.258;12.690;2023-04-30T07:20:01;6.57;;;4.83;;
19341;SDS011;9807;48.258;12.690;2023-04-30T07:22:28;9.47;;;5.50;;
19341;SDS011;9807;48.258;12.690;2023-04-30T07:24:55;6.17;;;5.33;;
19341;SDS011;9807;48.258;12.690;2023-04-30T07:27:21;6.23;;;5.57;;
19341;SDS011;9807;48.258;12.690;2023-04-30T07:29:46;6.23;;;5.47;;
19341;SDS011;9807;48.258;12.690;2023-04-30T07:32:12;7.17;;;6.43;;
19341;SDS011;9807;48.258;12.690;2023-04-30T07:34:40;6.13;;;5.33;;
19341;SDS011;9807;48.258;12.690;2023-04-30T07:37:07;6.33;;;5.43;;
19341;SDS011;9807;48.258;12.690;2023-04-30T07:39:33;8.63;;;6.50;;
19341;SDS011;9807;48.258;12.690;2023-04-30T07:42:00;7.27;;;5.90;;
19341;SDS011;9807;48.258;12.690;2023-04-30T07:44:26;7.20;;;5.60;;
19341;SDS011;9807;48.258;12.690;2023-04-30T07:46:52;7.33;;;5.93;;
19341;SDS011;9807;48.258;12.690;2023-04-30T07:49:18;6.07;;;5.47;;
19341;SDS011;9807;48.258;12.690;2023-04-30T07:51:44;6.33;;;5.63;;
19341;SDS011;9807;48.258;12.690;2023-04-30T07:54:10;6.37;;;5.63;;
19341;SDS011;9807;48.258;12.690;2023-04-30T07:56:36;6.20;;;5.60;;
19341;SDS011;9807;48.258;12.690;2023-04-30T07:59:02;7.00;;;5.40;;
19341;SDS011;9807;48.258;12.690;2023-04-30T08:01:28;5.30;;;4.80;;
19341;SDS011;9807;48.258;12.690;2023-04-30T08:03:53;8.67;;;5.67;;
19341;SDS011;9807;48.258;12.690;2023-04-30T08:06:24;7.10;;;5.60;;
19341;SDS011;9807;48.258;12.690;2023-04-30T08:08:51;7.13;;;6.10;;
19341;SDS011;9807;48.258;12.690;2023-04-30T08:11:17;5.97;;;5.33;;
19341;SDS011;9807;48.258;12.690;2023-04-30T08:13:43;7.13;;;5.10;;
19341;SDS011;9807;48.258;12.690;2023-04-30T08:16:08;6.57;;;5.13;;
19341;SDS011;9807;48.258;12.690;2023-04-30T08:18:34;7.30;;;5.40;;
19341;SDS011;9807;48.258;12.690;2023-04-30T08:21:02;6.10;;;4.70;;
19341;SDS011;9807;48.258;12.690;2023-04-30T08:23:29;5.90;;;5.30;;
19341;SDS011;9807;48.258;12.690;2023-04-30T08:25:55;6.43;;;5.20;;
19341;SDS011;9807;48.258;12.690;2023-04-30T08:28:20;5.90;;;5.30;;
19341;SDS011;9807;48.258;12.690;2023-04-30T08:30:46;6.03;;;5.10;;
19341;SDS011;9807;48.258;12.690;2023-04-30T08:33:12;7.83;;;5.10;;
19341;SDS011;9807;48.258;12.690;2023-04-30T08:35:38;25.60;;;15.47;;
19341;SDS011;9807;48.258;12.690;2023-04-30T08:38:03;79.10;;;25.80;;
19341;SDS011;9807;48.258;12.690;2023-04-30T08:40:29;23.60;;;11.33;;
19341;SDS011;9807;48.258;12.690;2023-04-30T08:45:34;13.50;;;7.20;;
19341;SDS011;9807;48.258;12.690;2023-04-30T08:48:03;10.53;;;6.63;;
19341;SDS011;9807;48.258;12.690;2023-04-30T08:50:34;9.20;;;5.90;;
19341;SDS011;9807;48.258;12.690;2023-04-30T08:53:00;7.00;;;5.57;;
19341;SDS011;9807;48.258;12.690;2023-04-30T08:55:26;8.20;;;6.20;;
19341;SDS011;9807;48.258;12.690;2023-04-30T08:57:52;7.33;;;5.67;;
19341;SDS011;9807;48.258;12.690;2023-04-30T09:00:19;6.87;;;5.27;;
19341;SDS011;9807;48.258;12.690;2023-04-30T09:02:45;7.47;;;5.80;;
19341;SDS011;9807;48.258;12.690;2023-04-30T09:05:13;7.87;;;4.90;;
19341;SDS011;9807;48.258;12.690;2023-04-30T09:07:39;5.63;;;5.03;;
19341;SDS011;9807;48.258;12.690;2023-04-30T09:10:13;6.87;;;5.13;;
19341;SDS011;9807;48.258;12.690;2023-04-30T09:12:39;10.23;;;4.70;;
19341;SDS011;9807;48.258;12.690;2023-04-30T09:15:07;6.50;;;5.00;;
19341;SDS011;9807;48.258;12.690;2023-04-30T09:17:33;5.97;;;5.00;;
19341;SDS011;9807;48.258;12.690;2023-04-30T09:20:08;5.57;;;4.67;;
19341;SDS011;9807;48.258;12.690;2023-04-30T09:22:38;8.07;;;5.10;;
19341;SDS011;9807;48.258;12.690;2023-04-30T09:25:05;6.73;;;4.20;;
19341;SDS011;9807;48.258;12.690;2023-04-30T09:27:32;6.20;;;4.43;;
19341;SDS011;9807;48.258;12.690;2023-04-30T09:29:57;7.40;;;4.90;;
19341;SDS011;9807;48.258;12.690;2023-04-30T09:32:27;5.23;;;4.40;;
19341;SDS011;9807;48.258;12.690;2023-04-30T09:34:54;6.80;;;4.70;;
19341;SDS011;9807;48.258;12.690;2023-04-30T09:37:20;7.00;;;4.80;;
19341;SDS011;9807;48.258;12.690;2023-04-30T09:39:46;5.33;;;4.77;;
19341;SDS011;9807;48.258;12.690;2023-04-30T09:42:12;6.73;;;4.70;;
19341;SDS011;9807;48.258;12.690;2023-04-30T09:44:39;6.00;;;4.60;;
19341;SDS011;9807;48.258;12.690;2023-04-30T09:49:57;7.97;;;4.50;;
19341;SDS011;9807;48.258;12.690;2023-04-30T09:52:24;6.27;;;3.90;;
19341;SDS011;9807;48.258;12.690;2023-04-30T09:54:50;6.47;;;4.80;;
19341;SDS011;9807;48.258;12.690;2023-04-30T09:57:16;6.90;;;4.70;;
19341;SDS011;9807;48.258;12.690;2023-04-30T09:59:47;4.60;;;4.00;;
19341;SDS011;9807;48.258;12.690;2023-04-30T10:02:14;5.37;;;4.10;;
19341;SDS011;9807;48.258;12.690;2023-04-30T10:04:41;5.70;;;4.30;;
19341;SDS011;9807;48.258;12.690;2023-04-30T10:07:13;4.57;;;3.97;;
19341;SDS011;9807;48.258;12.690;2023-04-30T10:09:45;5.40;;;4.67;;
19341;SDS011;9807;48.258;12.690;2023-04-30T10:12:14;4.83;;;4.33;;
19341;SDS011;9807;48.258;12.690;2023-04-30T10:14:47;7.33;;;4.20;;
19341;SDS011;9807;48.258;12.690;2023-04-30T10:17:17;4.57;;;4.13;;
19341;SDS011;9807;48.258;12.690;2023-04-30T10:19:47;7.60;;;5.03;;
19341;SDS011;9807;48.258;12.690;2023-04-30T10:22:16;7.40;;;4.70;;
19341;SDS011;9807;48.258;12.690;2023-04-30T10:24:43;5.13;;;4.60;;
19341;SDS011;9807;48.258;12.690;2023-04-30T10:27:10;7.37;;;4.50;;
19341;SDS011;9807;48.258;12.690;2023-04-30T10:29:37;9.70;;;4.10;;
19341;SDS011;9807;48.258;12.690;2023-04-30T10:32:04;5.77;;;4.30;;
19341;SDS011;9807;48.258;12.690;2023-04-30T10:37:30;5.43;;;4.50;;
19341;SDS011;9807;48.258;12.690;2023-04-30T10:40:02;5.13;;;4.10;;
19341;SDS011;9807;48.258;12.690;2023-04-30T10:42:33;4.97;;;4.40;;
19341;SDS011;9807;48.258;12.690;2023-04-30T10:45:01;5.03;;;4.47;;
19341;SDS011;9807;48.258;12.690;2023-04-30T10:47:27;4.83;;;4.20;;
19341;SDS011;9807;48.258;12.690;2023-04-30T10:50:01;6.33;;;4.77;;
19341;SDS011;9807;48.258;12.690;2023-04-30T10:52:28;5.27;;;4.60;;
19341;SDS011;9807;48.258;12.690;2023-04-30T10:54:54;5.00;;;4.50;;
19341;SDS011;9807;48.258;12.690;2023-04-30T10:57:20;5.53;;;3.83;;
19341;SDS011;9807;48.258;12.690;2023-04-30T10:59:51;6.27;;;5.00;;
19341;SDS011;9807;48.258;12.690;2023-04-30T11:02:18;5.13;;;4.60;;
19341;SDS011;9807;48.258;12.690;2023-04-30T11:10:37;6.23;;;4.23;;
19341;SDS011;9807;48.258;12.690;2023-04-30T11:13:04;4.83;;;4.33;;
19341;SDS011;9807;48.258;12.690;2023-04-30T11:15:38;4.33;;;3.70;;
19341;SDS011;9807;48.258;12.690;2023-04-30T11:18:06;5.53;;;4.13;;
19341;SDS011;9807;48.258;12.690;2023-04-30T11:20:32;5.63;;;4.10;;
19341;SDS011;9807;48.258;12.690;2023-04-30T11:23:08;4.37;;;3.53;;
19341;SDS011;9807;48.258;12.690;2023-04-30T11:25:39;4.80;;;3.70;;
19341;SDS011;9807;48.258;12.690;2023-04-30T11:28:21;4.03;;;3.27;;
19341;SDS011;9807;48.258;12.690;2023-04-30T11:31:06;7.53;;;3.60;;
19341;SDS011;9807;48.258;12.690;2023-04-30T11:33:32;7.30;;;4.43;;
19341;SDS011;9807;48.258;12.690;2023-04-30T11:36:00;4.90;;;4.00;;
19341;SDS011;9807;48.258;12.690;2023-04-30T11:38:30;4.77;;;4.27;;
19341;SDS011;9807;48.258;12.690;2023-04-30T11:40:59;4.30;;;3.83;;
19341;SDS011;9807;48.258;12.690;2023-04-30T11:43:26;8.47;;;4.50;;
19341;SDS011;9807;48.258;12.690;2023-04-30T11:48:34;4.90;;;4.30;;
19341;SDS011;9807;48.258;12.690;2023-04-30T11:51:04;7.13;;;4.40;;
19341;SDS011;9807;48.258;12.690;2023-04-30T11:53:34;6.33;;;4.20;;
19341;SDS011;9807;48.258;12.690;2023-04-30T11:56:03;5.17;;;3.97;;
19341;SDS011;9807;48.258;12.690;2023-04-30T11:58:32;5.67;;;4.30;;
19341;SDS011;9807;48.258;12.690;2023-04-30T12:01:07;4.70;;;4.27;;
19341;SDS011;9807;48.258;12.690;2023-04-30T12:03:47;6.23;;;4.33;;
19341;SDS011;9807;48.258;12.690;2023-04-30T12:06:21;6.77;;;4.27;;
19341;SDS011;9807;48.258;12.690;2023-04-30T12:08:55;4.40;;;4.00;;
19341;SDS011;9807;48.258;12.690;2023-04-30T12:11:22;4.10;;;3.70;;
19341;SDS011;9807;48.258;12.690;2023-04-30T12:16:38;5.33;;;3.53;;
19341;SDS011;9807;48.258;12.690;2023-04-30T12:19:17;4.30;;;3.80;;
19341;SDS011;9807;48.258;12.690;2023-04-30T12:21:44;4.30;;;3.90;;
19341;SDS011;9807;48.258;12.690;2023-04-30T12:24:14;6.57;;;4.30;;
19341;SDS011;9807;48.258;12.690;2023-04-30T12:26:41;6.37;;;4.80;;
19341;SDS011;9807;48.258;12.690;2023-04-30T12:29:08;4.80;;;4.30;;
19341;SDS011;9807;48.258;12.690;2023-04-30T12:31:42;6.07;;;4.37;;
19341;SDS011;9807;48.258;12.690;2023-04-30T12:34:15;5.93;;;4.70;;
19341;SDS011;9807;48.258;12.690;2023-04-30T12:36:42;7.30;;;4.30;;
19341;SDS011;9807;48.258;12.690;2023-04-30T12:39:13;6.53;;;5.60;;
19341;SDS011;9807;48.258;12.690;2023-04-30T12:41:40;4.90;;;4.50;;
19341;SDS011;9807;48.258;12.690;2023-04-30T12:44:18;7.10;;;5.03;;
19341;SDS011;9807;48.258;12.690;2023-04-30T12:46:45;7.97;;;4.97;;
19341;SDS011;9807;48.258;12.690;2023-04-30T12:49:20;7.77;;;5.30;;
19341;SDS011;9807;48.258;12.690;2023-04-30T12:51:48;6.43;;;4.80;;
19341;SDS011;9807;48.258;12.690;2023-04-30T12:54:14;7.77;;;5.30;;
19341;SDS011;9807;48.258;12.690;2023-04-30T12:57:02;5.00;;;4.50;;
19341;SDS011;9807;48.258;12.690;2023-04-30T12:59:31;5.20;;;4.53;;
19341;SDS011;9807;48.258;12.690;2023-04-30T13:02:08;4.70;;;3.93;;
19341;SDS011;9807;48.258;12.690;2023-04-30T13:04:35;5.23;;;4.40;;
19341;SDS011;9807;48.258;12.690;2023-04-30T13:07:01;4.83;;;4.30;;
19341;SDS011;9807;48.258;12.690;2023-04-30T13:09:27;5.47;;;3.83;;
19341;SDS011;9807;48.258;12.690;2023-04-30T13:11:53;4.97;;;4.00;;
19341;SDS011;9807;48.258;12.690;2023-04-30T13:14:20;4.97;;;4.13;;
19341;SDS011;9807;48.258;12.690;2023-04-30T13:16:46;5.57;;;4.13;;
19341;SDS011;9807;48.258;12.690;2023-04-30T13:19:12;5.20;;;4.20;;
19341;SDS011;9807;48.258;12.690;2023-04-30T13:21:38;5.53;;;4.20;;
19341;SDS011;9807;48.258;12.690;2023-04-30T13:24:04;4.20;;;3.80;;
19341;SDS011;9807;48.258;12.690;2023-04-30T13:26:30;5.57;;;4.20;;
19341;SDS011;9807;48.258;12.690;2023-04-30T13:28:56;5.47;;;4.40;;
19341;SDS011;9807;48.258;12.690;2023-04-30T13:31:22;6.40;;;4.00;;
19341;SDS011;9807;48.258;12.690;2023-04-30T13:33:48;4.10;;;3.70;;
19341;SDS011;9807;48.258;12.690;2023-04-30T13:36:18;5.33;;;3.93;;
19341;SDS011;9807;48.258;12.690;2023-04-30T13:38:45;5.73;;;4.23;;
19341;SDS011;9807;48.258;12.690;2023-04-30T13:41:11;4.77;;;3.50;;
19341;SDS011;9807;48.258;12.690;2023-04-30T13:43:37;4.83;;;3.60;;
19341;SDS011;9807;48.258;12.690;2023-04-30T13:46:06;5.40;;;3.87;;
19341;SDS011;9807;48.258;12.690;2023-04-30T13:48:33;4.10;;;3.63;;
19341;SDS011;9807;48.258;12.690;2023-04-30T13:50:59;5.67;;;3.67;;
19341;SDS011;9807;48.258;12.690;2023-04-30T13:53:30;4.40;;;3.60;;
19341;SDS011;9807;48.258;12.690;2023-04-30T13:55:56;4.10;;;3.53;;
19341;SDS011;9807;48.258;12.690;2023-04-30T13:58:24;7.50;;;3.97;;
19341;SDS011;9807;48.258;12.690;2023-04-30T14:00:50;4.27;;;3.77;;
19341;SDS011;9807;48.258;12.690;2023-04-30T14:03:17;3.77;;;3.30;;
19341;SDS011;9807;48.258;12.690;2023-04-30T14:05:43;4.07;;;3.63;;
19341;SDS011;9807;48.258;12.690;2023-04-30T14:08:08;4.97;;;3.53;;
19341;SDS011;9807;48.258;12.690;2023-04-30T14:10:34;4.77;;;3.53;;
19341;SDS011;9807;48.258;12.690;2023-04-30T14:13:00;4.40;;;3.10;;
19341;SDS011;9807;48.258;12.690;2023-04-30T14:15:26;4.00;;;3.47;;
19341;SDS011;9807;48.258;12.690;2023-04-30T14:17:54;5.57;;;3.23;;
19341;SDS011;9807;48.258;12.690;2023-04-30T14:20:20;4.03;;;3.53;;
19341;SDS011;9807;48.258;12.690;2023-04-30T14:22:45;4.20;;;3.40;;
19341;SDS011;9807;48.258;12.690;2023-04-30T14:25:11;3.47;;;3.13;;
19341;SDS011;9807;48.258;12.690;2023-04-30T14:27:37;3.60;;;2.80;;
19341;SDS011;9807;48.258;12.690;2023-04-30T14:30:03;4.00;;;3.07;;
19341;SDS011;9807;48.258;12.690;2023-04-30T14:32:33;3.60;;;3.03;;
19341;SDS011;9807;48.258;12.690;2023-04-30T14:35:01;4.20;;;3.20;;
19341;SDS011;9807;48.258;12.690;2023-04-30T14:37:28;4.43;;;3.10;;
19341;SDS011;9807;48.258;12.690;2023-04-30T14:39:54;3.83;;;2.90;;
19341;SDS011;9807;48.258;12.690;2023-04-30T14:42:20;5.47;;;3.10;;
19341;SDS011;9807;48.258;12.690;2023-04-30T14:44:46;4.30;;;3.10;;
19341;SDS011;9807;48.258;12.690;2023-04-30T14:47:12;3.00;;;2.70;;
19341;SDS011;9807;48.258;12.690;2023-04-30T14:49:38;4.67;;;2.97;;
19341;SDS011;9807;48.258;12.690;2023-04-30T14:52:04;3.50;;;3.20;;
19341;SDS011;9807;48.258;12.690;2023-04-30T14:54:30;4.40;;;3.03;;
19341;SDS011;9807;48.258;12.690;2023-04-30T14:56:56;5.87;;;2.97;;
19341;SDS011;9807;48.258;12.690;2023-04-30T14:59:29;3.23;;;2.93;;
19341;SDS011;9807;48.258;12.690;2023-04-30T15:01:56;2.70;;;2.50;;
19341;SDS011;9807;48.258;12.690;2023-04-30T15:04:21;5.43;;;3.20;;
19341;SDS011;9807;48.258;12.690;2023-04-30T15:06:47;4.40;;;3.70;;
19341;SDS011;9807;48.258;12.690;2023-04-30T15:09:13;3.93;;;3.30;;
19341;SDS011;9807;48.258;12.690;2023-04-30T15:11:39;4.23;;;3.90;;
19341;SDS011;9807;48.258;12.690;2023-04-30T15:14:05;6.00;;;3.90;;
19341;SDS011;9807;48.258;12.690;2023-04-30T15:16:31;4.70;;;3.37;;
19341;SDS011;9807;48.258;12.690;2023-04-30T15:18:56;4.33;;;3.80;;
19341;SDS011;9807;48.258;12.690;2023-04-30T15:21:26;6.47;;;3.73;;